Weather reports worldwide

Advertisment
Passo Rolle, Italy (16021): temperature & dewpoint: 10.06.2019 13:00:00 - 16.06.2019 13:00:00 (CEST)Passo Rolle, Italy (16021): wind speed: 10.06.2019 13:00:00 - 16.06.2019 13:00:00 (CEST)Passo Rolle, Italy (16021): wind direction: 10.06.2019 13:00:00 - 16.06.2019 13:00:00 (CEST)Passo Rolle, Italy (16021): visibility: 10.06.2019 13:00:00 - 16.06.2019 13:00:00 (CEST)
Date & Time tt [°C] td [°C] ff [km/h] ff [kn] dd vv [km]
16.06.2019 13:00:00 14,0 12,0 9 5 ENE 10
16.06.2019 12:00:00 17,0 6,0 11 6 S 10
16.06.2019 11:00:00 16,4 1,3 11 6 ESE 50
16.06.2019 10:00:00 15,0 -1,0 9 5 E 10
16.06.2019 09:00:00 14,0 4,0 8 4 E 10
16.06.2019 08:00:00 12,2 7,3 0 0 N 40
16.06.2019 07:00:00 11,0 7,0 0 0 N 10
16.06.2019 06:00:00 10,0 8,0 5 3 ESE 10
16.06.2019 05:00:00 10,4 7,5 5 3 E 20
16.06.2019 04:00:00 - - - - - -
16.06.2019 03:00:00 - - - - - -
16.06.2019 02:00:00 11,2 9,6 8 4 E 10
16.06.2019 01:00:00 - - - - - -
16.06.2019 00:00:00 - - - - - -
15.06.2019 23:00:00 12,6 11,0 11 6 SSE 10
15.06.2019 22:00:00 - - - - - -
15.06.2019 21:00:00 - - - - - -
15.06.2019 20:00:00 15,6 8,8 13 7 S 30
15.06.2019 19:00:00 - - - - - -
15.06.2019 18:00:00 17,0 7,0 15 8 SSE 10
15.06.2019 17:00:00 17,0 6,5 21 11 SE 35
15.06.2019 16:00:00 - - - - - -
15.06.2019 15:00:00 18,0 8,0 11 6 SE 10
15.06.2019 14:00:00 17,2 8,6 24 13 SE 35
15.06.2019 13:00:00 17,0 9,0 21 11 SE 10
15.06.2019 12:00:00 16,0 9,0 24 13 SE 10
15.06.2019 11:00:00 15,2 9,4 26 14 ESE 35
15.06.2019 10:00:00 15,0 8,0 21 11 SE 10
15.06.2019 09:00:00 14,0 9,0 15 8 SE 10
15.06.2019 08:00:00 13,0 8,1 9 5 SSE 35
15.06.2019 07:00:00 12,0 9,0 9 5 SSE 10
15.06.2019 06:00:00 12,0 8,0 11 6 S 10
15.06.2019 05:00:00 12,4 8,7 15 8 SSE 25
15.06.2019 04:00:00 - - - - - -
15.06.2019 03:00:00 - - - - - -
15.06.2019 02:00:00 13,6 3,7 16 9 SW 10
15.06.2019 01:00:00 - - - - - -
15.06.2019 00:00:00 - - - - - -
14.06.2019 23:00:00 13,8 4,4 8 4 SSW 12
14.06.2019 22:00:00 - - - - - -
14.06.2019 21:00:00 - - - - - -
14.06.2019 20:00:00 16,6 -0,1 11 6 S 35
14.06.2019 19:00:00 19,0 0,0 13 7 S 10
14.06.2019 18:00:00 20,0 1,0 16 9 S 10
14.06.2019 17:00:00 19,8 0,8 15 8 SSE 50
14.06.2019 16:00:00 20,0 1,0 16 9 SSE 10
14.06.2019 15:00:00 20,0 2,0 15 8 SSE 10
14.06.2019 14:00:00 19,4 1,9 15 8 SE 50
14.06.2019 13:00:00 19,0 2,0 18 10 SSE 10
14.06.2019 12:00:00 18,0 1,0 13 7 SE 10
14.06.2019 11:00:00 17,4 0,1 16 9 SE 50
14.06.2019 10:00:00 17,0 0,0 8 4 ESE 10
14.06.2019 09:00:00 14,0 -6,0 13 7 ESE 10
14.06.2019 08:00:00 13,4 -5,7 15 8 SE 35
14.06.2019 07:00:00 13,0 -9,0 8 4 E 10
14.06.2019 06:00:00 11,0 -13,0 0 0 N 10
14.06.2019 05:00:00 10,8 -13,3 8 4 NNW 20
14.06.2019 04:00:00 - - - - - -
14.06.2019 03:00:00 - - - - - -
14.06.2019 02:00:00 10,2 -12,4 4 2 N 10
14.06.2019 01:00:00 - - - - - -
14.06.2019 00:00:00 - - - - - -
13.06.2019 23:00:00 9,0 3,2 21 11 SE 12
13.06.2019 22:00:00 - - - - - -
13.06.2019 21:00:00 - - - - - -
13.06.2019 20:00:00 15,6 1,0 18 10 SSE 35
13.06.2019 19:00:00 17,0 2,0 22 12 SSE 10
13.06.2019 18:00:00 17,0 3,0 21 11 SSE 10
13.06.2019 17:00:00 15,2 3,7 22 12 SE 35
13.06.2019 16:00:00 15,0 4,0 24 13 SE 10
13.06.2019 15:00:00 15,0 2,0 24 13 SE 10
13.06.2019 14:00:00 14,6 0,5 18 10 SE 25
13.06.2019 13:00:00 14,0 2,0 24 13 ESE 10
13.06.2019 12:00:00 14,0 1,0 24 13 SE 10
13.06.2019 11:00:00 13,0 3,4 21 11 SE 25
13.06.2019 10:00:00 12,0 7,0 18 10 ESE 10
13.06.2019 09:00:00 11,0 8,0 13 7 SE 10
13.06.2019 08:00:00 10,4 8,0 9 5 S 10
13.06.2019 07:00:00 10,0 8,0 9 5 SSE 10
13.06.2019 06:00:00 9,0 7,0 8 4 ESE 10
13.06.2019 05:00:00 9,0 7,4 5 3 SE 15
13.06.2019 04:00:00 - - - - - -
13.06.2019 03:00:00 - - - - - -
13.06.2019 02:00:00 10,2 8,8 9 5 S 10
13.06.2019 01:00:00 - - - - - -
13.06.2019 00:00:00 - - - - - -
12.06.2019 23:00:00 10,2 8,1 5 3 E 10
12.06.2019 22:00:00 - - - - - -
12.06.2019 21:00:00 - - - - - -
12.06.2019 20:00:00 13,0 9,3 21 11 SE 10
12.06.2019 19:00:00 14,0 6,0 21 11 ESE 10
12.06.2019 18:00:00 13,0 6,0 18 10 SE 10
12.06.2019 17:00:00 14,0 5,4 18 10 SE 25
12.06.2019 16:00:00 13,0 7,0 26 14 SE 10
12.06.2019 15:00:00 13,0 6,0 16 9 SE 10
12.06.2019 14:00:00 13,2 5,1 21 11 SSE 25
12.06.2019 13:00:00 13,0 6,0 22 12 SE 10
12.06.2019 12:00:00 13,0 6,0 18 10 SSE 10
12.06.2019 11:00:00 12,4 8,3 26 14 SE 25
12.06.2019 10:00:00 12,0 9,0 31 17 ESE 10
12.06.2019 09:00:00 11,0 8,0 21 11 SE 10
12.06.2019 08:00:00 10,4 7,1 15 8 SE 30
12.06.2019 07:00:00 10,0 7,0 15 8 SE 10
12.06.2019 06:00:00 10,0 8,0 9 5 E 10
12.06.2019 05:00:00 10,0 8,4 8 4 ENE 15
12.06.2019 04:00:00 - - - - - -
12.06.2019 03:00:00 - - - - - -
12.06.2019 02:00:00 10,0 9,7 5 3 SSE 12
12.06.2019 01:00:00 - - - - - -
12.06.2019 00:00:00 - - - - - -
11.06.2019 23:00:00 11,2 9,0 15 8 ESE 15
11.06.2019 22:00:00 - - - - - -
11.06.2019 21:00:00 - - - - - -
11.06.2019 20:00:00 13,4 6,7 13 7 SE 25
11.06.2019 19:00:00 14,0 6,0 24 13 ESE 10
11.06.2019 18:00:00 15,0 6,0 18 10 SSE 10
11.06.2019 17:00:00 15,0 6,8 13 7 SE 25
11.06.2019 16:00:00 16,0 7,0 26 14 SE 10
11.06.2019 15:00:00 16,0 6,0 26 14 SE 10
11.06.2019 14:00:00 15,6 5,2 21 11 SE 40
11.06.2019 13:00:00 15,0 6,0 28 15 ESE 10
11.06.2019 12:00:00 14,0 6,0 28 15 ESE 10
11.06.2019 11:00:00 14,2 5,0 24 13 SE 40
11.06.2019 10:00:00 13,0 6,0 24 13 ESE 10
11.06.2019 09:00:00 - - - - - -
11.06.2019 08:00:00 11,2 7,9 21 11 ENE 40
11.06.2019 07:00:00 11,0 7,0 21 11 E 10
11.06.2019 06:00:00 10,0 7,0 9 5 SSE 10
11.06.2019 05:00:00 10,4 7,1 11 6 SE 30
11.06.2019 04:00:00 - - - - - -
11.06.2019 03:00:00 - - - - - -
11.06.2019 02:00:00 10,2 6,9 8 4 ESE 10
11.06.2019 01:00:00 - - - - - -
11.06.2019 00:00:00 - - - - - -
10.06.2019 23:00:00 11,2 4,7 15 8 ESE 10
10.06.2019 22:00:00 - - - - - -
10.06.2019 21:00:00 - - - - - -
10.06.2019 20:00:00 14,2 4,5 16 9 SE 30
10.06.2019 19:00:00 16,0 4,0 13 7 SSE 10
10.06.2019 18:00:00 16,0 6,0 21 11 SE 10
10.06.2019 17:00:00 15,0 7,3 16 9 S 30
10.06.2019 16:00:00 14,0 4,0 37 20 SSE 10
10.06.2019 15:00:00 14,0 4,0 22 12 SE 10
10.06.2019 14:00:00 14,0 4,3 22 12 SSE 30
10.06.2019 13:00:00 15,0 6,0 21 11 SSE 10

tt = temperature
td = dewpoint
ff = wind speed
dd = wind direction
vv = visibility

Next stations